sensor_id;sensor_type;location;lat;lon;timestamp;P1;durP1;ratioP1;P2;durP2;ratioP2
45887;SDS011;31595;51.418;7.572;2024-03-07T00:00:08;44.75;;;26.77;;
45887;SDS011;31595;51.418;7.572;2024-03-07T00:02:42;45.47;;;27.33;;
45887;SDS011;31595;51.418;7.572;2024-03-07T00:05:09;44.15;;;26.38;;
45887;SDS011;31595;51.418;7.572;2024-03-07T00:07:38;46.67;;;26.88;;
45887;SDS011;31595;51.418;7.572;2024-03-07T00:10:05;42.78;;;26.33;;
45887;SDS011;31595;51.418;7.572;2024-03-07T00:12:32;44.35;;;25.85;;
45887;SDS011;31595;51.418;7.572;2024-03-07T00:15:01;45.90;;;26.88;;
45887;SDS011;31595;51.418;7.572;2024-03-07T00:17:28;44.33;;;26.65;;
45887;SDS011;31595;51.418;7.572;2024-03-07T00:19:54;46.53;;;27.33;;
45887;SDS011;31595;51.418;7.572;2024-03-07T00:22:21;45.53;;;28.55;;
45887;SDS011;31595;51.418;7.572;2024-03-07T00:24:50;41.83;;;26.23;;
45887;SDS011;31595;51.418;7.572;2024-03-07T00:27:16;44.63;;;26.67;;
45887;SDS011;31595;51.418;7.572;2024-03-07T00:29:43;45.10;;;27.30;;
45887;SDS011;31595;51.418;7.572;2024-03-07T00:32:18;45.78;;;27.83;;
45887;SDS011;31595;51.418;7.572;2024-03-07T00:34:45;42.15;;;25.83;;
45887;SDS011;31595;51.418;7.572;2024-03-07T00:37:12;42.50;;;25.73;;
45887;SDS011;31595;51.418;7.572;2024-03-07T00:39:38;48.45;;;26.27;;
45887;SDS011;31595;51.418;7.572;2024-03-07T00:42:07;43.58;;;26.42;;
45887;SDS011;31595;51.418;7.572;2024-03-07T00:44:34;37.47;;;25.02;;
45887;SDS011;31595;51.418;7.572;2024-03-07T00:47:01;40.72;;;26.15;;
45887;SDS011;31595;51.418;7.572;2024-03-07T00:49:28;43.95;;;26.27;;
45887;SDS011;31595;51.418;7.572;2024-03-07T00:51:55;47.13;;;27.67;;
45887;SDS011;31595;51.418;7.572;2024-03-07T00:54:22;54.13;;;30.27;;
45887;SDS011;31595;51.418;7.572;2024-03-07T00:56:49;56.80;;;31.75;;
45887;SDS011;31595;51.418;7.572;2024-03-07T00:59:17;55.10;;;31.23;;
45887;SDS011;31595;51.418;7.572;2024-03-07T01:01:44;52.80;;;30.95;;
45887;SDS011;31595;51.418;7.572;2024-03-07T01:04:11;51.08;;;30.35;;
45887;SDS011;31595;51.418;7.572;2024-03-07T01:06:37;46.50;;;28.00;;
45887;SDS011;31595;51.418;7.572;2024-03-07T01:09:06;62.63;;;34.90;;
45887;SDS011;31595;51.418;7.572;2024-03-07T01:11:39;69.85;;;29.83;;
45887;SDS011;31595;51.418;7.572;2024-03-07T01:14:06;55.72;;;29.85;;
45887;SDS011;31595;51.418;7.572;2024-03-07T01:16:34;106.25;;;31.50;;
45887;SDS011;31595;51.418;7.572;2024-03-07T01:19:01;128.73;;;34.60;;
45887;SDS011;31595;51.418;7.572;2024-03-07T01:21:28;141.38;;;32.83;;
45887;SDS011;31595;51.418;7.572;2024-03-07T01:23:56;148.88;;;34.08;;
45887;SDS011;31595;51.418;7.572;2024-03-07T01:26:22;144.05;;;35.40;;
45887;SDS011;31595;51.418;7.572;2024-03-07T01:28:50;130.15;;;34.50;;
45887;SDS011;31595;51.418;7.572;2024-03-07T01:31:17;161.13;;;34.70;;
45887;SDS011;31595;51.418;7.572;2024-03-07T01:33:46;122.35;;;32.83;;
45887;SDS011;31595;51.418;7.572;2024-03-07T01:36:12;208.90;;;39.50;;
45887;SDS011;31595;51.418;7.572;2024-03-07T01:38:39;66.38;;;30.85;;
45887;SDS011;31595;51.418;7.572;2024-03-07T01:41:06;95.63;;;37.28;;
45887;SDS011;31595;51.418;7.572;2024-03-07T01:43:33;58.97;;;30.25;;
45887;SDS011;31595;51.418;7.572;2024-03-07T01:46:00;53.97;;;28.40;;
45887;SDS011;31595;51.418;7.572;2024-03-07T01:48:27;57.42;;;29.52;;
45887;SDS011;31595;51.418;7.572;2024-03-07T01:50:56;73.93;;;28.00;;
45887;SDS011;31595;51.418;7.572;2024-03-07T01:53:23;81.03;;;30.27;;
45887;SDS011;31595;51.418;7.572;2024-03-07T01:55:50;109.30;;;30.05;;
45887;SDS011;31595;51.418;7.572;2024-03-07T01:58:19;100.78;;;30.52;;
45887;SDS011;31595;51.418;7.572;2024-03-07T02:00:47;82.82;;;29.08;;
45887;SDS011;31595;51.418;7.572;2024-03-07T02:03:14;78.78;;;29.17;;
45887;SDS011;31595;51.418;7.572;2024-03-07T02:05:41;89.15;;;29.08;;
45887;SDS011;31595;51.418;7.572;2024-03-07T02:08:09;74.53;;;29.30;;
45887;SDS011;31595;51.418;7.572;2024-03-07T02:10:36;102.32;;;29.27;;
45887;SDS011;31595;51.418;7.572;2024-03-07T02:13:03;90.13;;;28.88;;
45887;SDS011;31595;51.418;7.572;2024-03-07T02:15:30;127.22;;;30.77;;
45887;SDS011;31595;51.418;7.572;2024-03-07T02:17:58;166.35;;;33.88;;
45887;SDS011;31595;51.418;7.572;2024-03-07T02:20:25;115.03;;;31.77;;
45887;SDS011;31595;51.418;7.572;2024-03-07T02:22:55;78.80;;;26.63;;
45887;SDS011;31595;51.418;7.572;2024-03-07T02:25:22;77.93;;;27.50;;
45887;SDS011;31595;51.418;7.572;2024-03-07T02:27:48;69.10;;;26.02;;
45887;SDS011;31595;51.418;7.572;2024-03-07T02:30:15;116.90;;;28.98;;
45887;SDS011;31595;51.418;7.572;2024-03-07T02:32:45;110.97;;;27.20;;
45887;SDS011;31595;51.418;7.572;2024-03-07T02:35:17;103.60;;;27.40;;
45887;SDS011;31595;51.418;7.572;2024-03-07T02:37:44;181.43;;;30.63;;
45887;SDS011;31595;51.418;7.572;2024-03-07T02:40:14;93.32;;;27.88;;
45887;SDS011;31595;51.418;7.572;2024-03-07T02:42:41;87.03;;;25.70;;
45887;SDS011;31595;51.418;7.572;2024-03-07T02:45:08;133.15;;;26.52;;
45887;SDS011;31595;51.418;7.572;2024-03-07T02:47:35;155.65;;;30.38;;
45887;SDS011;31595;51.418;7.572;2024-03-07T02:50:04;99.05;;;26.73;;
45887;SDS011;31595;51.418;7.572;2024-03-07T02:52:31;81.88;;;25.77;;
45887;SDS011;31595;51.418;7.572;2024-03-07T02:54:58;84.40;;;25.35;;
45887;SDS011;31595;51.418;7.572;2024-03-07T02:57:26;75.78;;;25.35;;
45887;SDS011;31595;51.418;7.572;2024-03-07T02:59:53;59.92;;;24.23;;
45887;SDS011;31595;51.418;7.572;2024-03-07T03:02:20;52.10;;;23.83;;
45887;SDS011;31595;51.418;7.572;2024-03-07T03:04:47;75.55;;;26.08;;
45887;SDS011;31595;51.418;7.572;2024-03-07T03:07:14;83.32;;;24.77;;
45887;SDS011;31595;51.418;7.572;2024-03-07T03:09:41;75.72;;;25.45;;
45887;SDS011;31595;51.418;7.572;2024-03-07T03:12:08;67.07;;;24.70;;
45887;SDS011;31595;51.418;7.572;2024-03-07T03:14:37;88.88;;;26.98;;
45887;SDS011;31595;51.418;7.572;2024-03-07T03:17:05;92.40;;;25.33;;
45887;SDS011;31595;51.418;7.572;2024-03-07T03:19:34;110.47;;;25.88;;
45887;SDS011;31595;51.418;7.572;2024-03-07T03:22:01;132.77;;;27.67;;
45887;SDS011;31595;51.418;7.572;2024-03-07T03:24:28;168.77;;;28.92;;
45887;SDS011;31595;51.418;7.572;2024-03-07T03:26:56;194.35;;;30.23;;
45887;SDS011;31595;51.418;7.572;2024-03-07T03:29:23;233.93;;;33.97;;
45887;SDS011;31595;51.418;7.572;2024-03-07T03:31:51;191.82;;;27.15;;
45887;SDS011;31595;51.418;7.572;2024-03-07T03:34:17;306.63;;;35.88;;
45887;SDS011;31595;51.418;7.572;2024-03-07T03:36:44;107.32;;;25.30;;
45887;SDS011;31595;51.418;7.572;2024-03-07T03:39:11;77.55;;;23.60;;
45887;SDS011;31595;51.418;7.572;2024-03-07T03:41:38;169.05;;;26.23;;
45887;SDS011;31595;51.418;7.572;2024-03-07T03:44:05;97.22;;;22.90;;
45887;SDS011;31595;51.418;7.572;2024-03-07T03:46:33;122.65;;;25.17;;
45887;SDS011;31595;51.418;7.572;2024-03-07T03:49:01;164.93;;;26.25;;
45887;SDS011;31595;51.418;7.572;2024-03-07T03:51:28;114.55;;;24.67;;
45887;SDS011;31595;51.418;7.572;2024-03-07T03:53:55;51.38;;;21.17;;
45887;SDS011;31595;51.418;7.572;2024-03-07T03:56:22;50.25;;;22.05;;
45887;SDS011;31595;51.418;7.572;2024-03-07T03:58:50;60.60;;;20.38;;
45887;SDS011;31595;51.418;7.572;2024-03-07T04:01:17;47.33;;;20.48;;
45887;SDS011;31595;51.418;7.572;2024-03-07T04:03:43;88.07;;;21.27;;
45887;SDS011;31595;51.418;7.572;2024-03-07T04:06:13;38.00;;;19.45;;
45887;SDS011;31595;51.418;7.572;2024-03-07T04:08:40;48.13;;;19.73;;
45887;SDS011;31595;51.418;7.572;2024-03-07T04:11:07;58.53;;;19.08;;
45887;SDS011;31595;51.418;7.572;2024-03-07T04:13:35;56.03;;;19.08;;
45887;SDS011;31595;51.418;7.572;2024-03-07T04:16:02;59.70;;;20.38;;
45887;SDS011;31595;51.418;7.572;2024-03-07T04:18:29;54.72;;;19.05;;
45887;SDS011;31595;51.418;7.572;2024-03-07T04:20:57;62.17;;;19.92;;
45887;SDS011;31595;51.418;7.572;2024-03-07T04:23:25;64.72;;;21.23;;
45887;SDS011;31595;51.418;7.572;2024-03-07T04:25:53;73.80;;;20.45;;
45887;SDS011;31595;51.418;7.572;2024-03-07T04:28:21;60.30;;;19.48;;
45887;SDS011;31595;51.418;7.572;2024-03-07T04:30:48;348.48;;;38.75;;
45887;SDS011;31595;51.418;7.572;2024-03-07T04:33:15;44.40;;;18.88;;
45887;SDS011;31595;51.418;7.572;2024-03-07T04:35:42;63.25;;;20.90;;
45887;SDS011;31595;51.418;7.572;2024-03-07T04:38:08;54.65;;;21.52;;
45887;SDS011;31595;51.418;7.572;2024-03-07T04:40:42;127.63;;;25.55;;
45887;SDS011;31595;51.418;7.572;2024-03-07T04:43:08;102.30;;;22.60;;
45887;SDS011;31595;51.418;7.572;2024-03-07T04:45:35;172.18;;;27.95;;
45887;SDS011;31595;51.418;7.572;2024-03-07T04:48:03;116.00;;;23.38;;
45887;SDS011;31595;51.418;7.572;2024-03-07T04:50:30;74.00;;;22.17;;
45887;SDS011;31595;51.418;7.572;2024-03-07T04:52:57;93.85;;;22.20;;
45887;SDS011;31595;51.418;7.572;2024-03-07T04:55:24;58.28;;;19.50;;
45887;SDS011;31595;51.418;7.572;2024-03-07T04:57:52;57.92;;;19.92;;
45887;SDS011;31595;51.418;7.572;2024-03-07T05:00:18;74.65;;;20.45;;
45887;SDS011;31595;51.418;7.572;2024-03-07T05:02:46;88.40;;;21.33;;
45887;SDS011;31595;51.418;7.572;2024-03-07T05:05:13;60.03;;;19.13;;
45887;SDS011;31595;51.418;7.572;2024-03-07T05:07:40;106.72;;;21.42;;
45887;SDS011;31595;51.418;7.572;2024-03-07T05:10:07;255.85;;;35.17;;
45887;SDS011;31595;51.418;7.572;2024-03-07T05:12:34;72.28;;;20.67;;
45887;SDS011;31595;51.418;7.572;2024-03-07T05:15:04;98.20;;;21.02;;
45887;SDS011;31595;51.418;7.572;2024-03-07T05:17:30;60.67;;;20.73;;
45887;SDS011;31595;51.418;7.572;2024-03-07T05:19:59;80.20;;;23.13;;
45887;SDS011;31595;51.418;7.572;2024-03-07T05:22:26;36.78;;;18.90;;
45887;SDS011;31595;51.418;7.572;2024-03-07T05:24:55;239.13;;;37.72;;
45887;SDS011;31595;51.418;7.572;2024-03-07T05:27:24;47.90;;;19.55;;
45887;SDS011;31595;51.418;7.572;2024-03-07T05:29:51;51.78;;;19.88;;
45887;SDS011;31595;51.418;7.572;2024-03-07T05:32:21;39.35;;;18.92;;
45887;SDS011;31595;51.418;7.572;2024-03-07T05:34:48;51.83;;;19.17;;
45887;SDS011;31595;51.418;7.572;2024-03-07T05:37:14;61.78;;;22.10;;
45887;SDS011;31595;51.418;7.572;2024-03-07T05:39:41;29.10;;;17.50;;
45887;SDS011;31595;51.418;7.572;2024-03-07T05:42:08;31.67;;;18.25;;
45887;SDS011;31595;51.418;7.572;2024-03-07T05:44:39;29.98;;;17.80;;
45887;SDS011;31595;51.418;7.572;2024-03-07T05:47:07;47.85;;;21.25;;
45887;SDS011;31595;51.418;7.572;2024-03-07T05:49:35;32.28;;;18.50;;
45887;SDS011;31595;51.418;7.572;2024-03-07T05:52:03;27.08;;;19.40;;
45887;SDS011;31595;51.418;7.572;2024-03-07T05:54:31;28.88;;;19.40;;
45887;SDS011;31595;51.418;7.572;2024-03-07T05:56:58;33.97;;;20.80;;
45887;SDS011;31595;51.418;7.572;2024-03-07T05:59:25;33.85;;;21.90;;
45887;SDS011;31595;51.418;7.572;2024-03-07T06:01:53;33.78;;;21.00;;
45887;SDS011;31595;51.418;7.572;2024-03-07T06:04:21;33.53;;;20.88;;
45887;SDS011;31595;51.418;7.572;2024-03-07T06:06:49;33.15;;;21.13;;
45887;SDS011;31595;51.418;7.572;2024-03-07T06:09:16;67.50;;;26.60;;
45887;SDS011;31595;51.418;7.572;2024-03-07T06:11:46;36.67;;;20.73;;
45887;SDS011;31595;51.418;7.572;2024-03-07T06:14:13;38.35;;;21.33;;
45887;SDS011;31595;51.418;7.572;2024-03-07T06:16:41;32.60;;;21.45;;
45887;SDS011;31595;51.418;7.572;2024-03-07T06:19:08;32.25;;;21.42;;
45887;SDS011;31595;51.418;7.572;2024-03-07T06:21:37;33.25;;;21.38;;
45887;SDS011;31595;51.418;7.572;2024-03-07T06:24:06;29.30;;;19.38;;
45887;SDS011;31595;51.418;7.572;2024-03-07T06:26:35;45.03;;;20.50;;
45887;SDS011;31595;51.418;7.572;2024-03-07T06:29:11;51.47;;;21.27;;
45887;SDS011;31595;51.418;7.572;2024-03-07T06:31:38;30.23;;;20.55;;
45887;SDS011;31595;51.418;7.572;2024-03-07T06:34:05;46.70;;;20.30;;
45887;SDS011;31595;51.418;7.572;2024-03-07T06:36:32;32.40;;;21.45;;
45887;SDS011;31595;51.418;7.572;2024-03-07T06:38:59;56.70;;;22.92;;
45887;SDS011;31595;51.418;7.572;2024-03-07T06:41:27;63.45;;;23.33;;
45887;SDS011;31595;51.418;7.572;2024-03-07T06:43:54;82.78;;;21.67;;
45887;SDS011;31595;51.418;7.572;2024-03-07T06:46:21;44.50;;;19.52;;
45887;SDS011;31595;51.418;7.572;2024-03-07T06:48:49;125.35;;;22.25;;
45887;SDS011;31595;51.418;7.572;2024-03-07T06:51:16;68.32;;;22.58;;
45887;SDS011;31595;51.418;7.572;2024-03-07T06:53:43;37.17;;;20.55;;
45887;SDS011;31595;51.418;7.572;2024-03-07T06:56:11;81.40;;;23.00;;
45887;SDS011;31595;51.418;7.572;2024-03-07T06:58:39;85.07;;;22.00;;
45887;SDS011;31595;51.418;7.572;2024-03-07T07:01:06;47.28;;;22.17;;
45887;SDS011;31595;51.418;7.572;2024-03-07T07:03:35;55.40;;;21.60;;
45887;SDS011;31595;51.418;7.572;2024-03-07T07:06:03;77.43;;;21.80;;
45887;SDS011;31595;51.418;7.572;2024-03-07T07:08:31;74.65;;;21.35;;
45887;SDS011;31595;51.418;7.572;2024-03-07T07:10:58;42.70;;;20.60;;
45887;SDS011;31595;51.418;7.572;2024-03-07T07:13:25;31.85;;;19.67;;
45887;SDS011;31595;51.418;7.572;2024-03-07T07:15:53;25.35;;;18.23;;
45887;SDS011;31595;51.418;7.572;2024-03-07T07:18:20;25.58;;;19.88;;
45887;SDS011;31595;51.418;7.572;2024-03-07T07:20:49;26.33;;;19.33;;
45887;SDS011;31595;51.418;7.572;2024-03-07T07:23:17;27.58;;;19.58;;
45887;SDS011;31595;51.418;7.572;2024-03-07T07:25:44;24.92;;;18.85;;
45887;SDS011;31595;51.418;7.572;2024-03-07T07:28:11;24.13;;;18.15;;
45887;SDS011;31595;51.418;7.572;2024-03-07T07:30:38;24.85;;;18.55;;
45887;SDS011;31595;51.418;7.572;2024-03-07T07:33:07;26.10;;;19.00;;
45887;SDS011;31595;51.418;7.572;2024-03-07T07:35:33;31.67;;;18.23;;
45887;SDS011;31595;51.418;7.572;2024-03-07T07:38:00;47.28;;;22.00;;
45887;SDS011;31595;51.418;7.572;2024-03-07T07:40:27;52.20;;;23.02;;
45887;SDS011;31595;51.418;7.572;2024-03-07T07:42:56;27.70;;;20.57;;
45887;SDS011;31595;51.418;7.572;2024-03-07T07:45:23;31.02;;;20.10;;
45887;SDS011;31595;51.418;7.572;2024-03-07T07:47:51;29.15;;;18.92;;
45887;SDS011;31595;51.418;7.572;2024-03-07T07:50:20;31.38;;;20.42;;
45887;SDS011;31595;51.418;7.572;2024-03-07T07:52:48;29.13;;;18.63;;
45887;SDS011;31595;51.418;7.572;2024-03-07T07:55:15;24.20;;;18.90;;
45887;SDS011;31595;51.418;7.572;2024-03-07T07:57:43;25.20;;;19.58;;
45887;SDS011;31595;51.418;7.572;2024-03-07T08:00:11;27.55;;;19.35;;
45887;SDS011;31595;51.418;7.572;2024-03-07T08:02:48;24.55;;;18.33;;
45887;SDS011;31595;51.418;7.572;2024-03-07T08:05:14;27.60;;;19.35;;
45887;SDS011;31595;51.418;7.572;2024-03-07T08:07:44;26.45;;;19.08;;
45887;SDS011;31595;51.418;7.572;2024-03-07T08:10:11;27.77;;;19.38;;
45887;SDS011;31595;51.418;7.572;2024-03-07T08:12:39;31.55;;;21.17;;
45887;SDS011;31595;51.418;7.572;2024-03-07T08:15:09;27.58;;;20.25;;
45887;SDS011;31595;51.418;7.572;2024-03-07T08:17:39;29.20;;;21.95;;
45887;SDS011;31595;51.418;7.572;2024-03-07T08:20:09;31.50;;;22.95;;
45887;SDS011;31595;51.418;7.572;2024-03-07T08:22:37;33.42;;;22.92;;
45887;SDS011;31595;51.418;7.572;2024-03-07T08:25:06;35.80;;;24.80;;
45887;SDS011;31595;51.418;7.572;2024-03-07T08:27:34;30.77;;;22.88;;
45887;SDS011;31595;51.418;7.572;2024-03-07T08:30:01;32.85;;;23.58;;
45887;SDS011;31595;51.418;7.572;2024-03-07T08:32:28;32.50;;;24.02;;
45887;SDS011;31595;51.418;7.572;2024-03-07T08:34:55;32.80;;;24.35;;
45887;SDS011;31595;51.418;7.572;2024-03-07T08:37:22;33.17;;;24.83;;
45887;SDS011;31595;51.418;7.572;2024-03-07T08:39:49;32.85;;;24.50;;
45887;SDS011;31595;51.418;7.572;2024-03-07T08:42:19;33.58;;;24.92;;
45887;SDS011;31595;51.418;7.572;2024-03-07T08:44:45;34.28;;;24.80;;
45887;SDS011;31595;51.418;7.572;2024-03-07T08:47:12;33.58;;;23.75;;
45887;SDS011;31595;51.418;7.572;2024-03-07T08:49:39;32.90;;;23.70;;
45887;SDS011;31595;51.418;7.572;2024-03-07T08:52:06;31.95;;;24.50;;
45887;SDS011;31595;51.418;7.572;2024-03-07T08:54:33;34.97;;;24.98;;
45887;SDS011;31595;51.418;7.572;2024-03-07T08:57:00;32.78;;;23.80;;
45887;SDS011;31595;51.418;7.572;2024-03-07T08:59:28;31.83;;;22.80;;
45887;SDS011;31595;51.418;7.572;2024-03-07T09:01:55;26.48;;;20.65;;
45887;SDS011;31595;51.418;7.572;2024-03-07T09:04:22;27.35;;;21.55;;
45887;SDS011;31595;51.418;7.572;2024-03-07T09:06:49;29.52;;;22.10;;
45887;SDS011;31595;51.418;7.572;2024-03-07T09:09:15;27.73;;;21.23;;
45887;SDS011;31595;51.418;7.572;2024-03-07T09:11:46;29.38;;;20.27;;
45887;SDS011;31595;51.418;7.572;2024-03-07T09:14:13;25.15;;;20.55;;
45887;SDS011;31595;51.418;7.572;2024-03-07T09:16:41;25.15;;;19.92;;
45887;SDS011;31595;51.418;7.572;2024-03-07T09:19:09;29.05;;;20.42;;
45887;SDS011;31595;51.418;7.572;2024-03-07T09:21:39;25.77;;;20.52;;
45887;SDS011;31595;51.418;7.572;2024-03-07T09:24:06;23.95;;;19.90;;
45887;SDS011;31595;51.418;7.572;2024-03-07T09:26:33;23.27;;;18.73;;
45887;SDS011;31595;51.418;7.572;2024-03-07T09:29:01;22.63;;;19.45;;
45887;SDS011;31595;51.418;7.572;2024-03-07T09:31:31;22.15;;;18.73;;
45887;SDS011;31595;51.418;7.572;2024-03-07T09:33:59;21.80;;;17.75;;
45887;SDS011;31595;51.418;7.572;2024-03-07T09:36:26;20.17;;;17.83;;
45887;SDS011;31595;51.418;7.572;2024-03-07T09:38:53;22.52;;;18.48;;
45887;SDS011;31595;51.418;7.572;2024-03-07T09:41:20;21.17;;;18.33;;
45887;SDS011;31595;51.418;7.572;2024-03-07T09:43:50;21.40;;;17.88;;
45887;SDS011;31595;51.418;7.572;2024-03-07T09:48:46;22.33;;;18.90;;
45887;SDS011;31595;51.418;7.572;2024-03-07T09:51:14;20.75;;;18.15;;
45887;SDS011;31595;51.418;7.572;2024-03-07T09:53:42;19.70;;;16.17;;
45887;SDS011;31595;51.418;7.572;2024-03-07T09:56:10;20.92;;;16.60;;
45887;SDS011;31595;51.418;7.572;2024-03-07T09:58:39;18.13;;;15.38;;
45887;SDS011;31595;51.418;7.572;2024-03-07T10:01:06;19.38;;;15.73;;
45887;SDS011;31595;51.418;7.572;2024-03-07T10:03:37;18.85;;;14.95;;
45887;SDS011;31595;51.418;7.572;2024-03-07T10:06:04;18.60;;;15.68;;
45887;SDS011;31595;51.418;7.572;2024-03-07T10:08:33;17.25;;;14.07;;
45887;SDS011;31595;51.418;7.572;2024-03-07T10:11:00;16.83;;;15.02;;
45887;SDS011;31595;51.418;7.572;2024-03-07T10:13:27;16.33;;;14.60;;
45887;SDS011;31595;51.418;7.572;2024-03-07T10:15:54;14.65;;;13.15;;
45887;SDS011;31595;51.418;7.572;2024-03-07T10:18:25;16.23;;;14.40;;
45887;SDS011;31595;51.418;7.572;2024-03-07T10:20:53;15.48;;;13.80;;
45887;SDS011;31595;51.418;7.572;2024-03-07T10:23:19;15.15;;;13.65;;
45887;SDS011;31595;51.418;7.572;2024-03-07T10:25:48;15.63;;;14.00;;
45887;SDS011;31595;51.418;7.572;2024-03-07T10:28:15;14.50;;;13.10;;
45887;SDS011;31595;51.418;7.572;2024-03-07T10:30:42;14.23;;;12.82;;
45887;SDS011;31595;51.418;7.572;2024-03-07T10:33:11;14.82;;;13.43;;
45887;SDS011;31595;51.418;7.572;2024-03-07T10:35:39;15.60;;;13.98;;
45887;SDS011;31595;51.418;7.572;2024-03-07T10:38:06;15.93;;;14.32;;
45887;SDS011;31595;51.418;7.572;2024-03-07T10:40:33;15.38;;;12.95;;
45887;SDS011;31595;51.418;7.572;2024-03-07T10:43:02;15.60;;;14.00;;
45887;SDS011;31595;51.418;7.572;2024-03-07T10:45:36;13.45;;;12.07;;
45887;SDS011;31595;51.418;7.572;2024-03-07T10:48:05;14.75;;;13.25;;
45887;SDS011;31595;51.418;7.572;2024-03-07T10:50:38;13.88;;;12.45;;
45887;SDS011;31595;51.418;7.572;2024-03-07T10:53:07;14.70;;;13.20;;
45887;SDS011;31595;51.418;7.572;2024-03-07T10:55:38;13.80;;;12.38;;
45887;SDS011;31595;51.418;7.572;2024-03-07T10:58:13;14.43;;;12.93;;
45887;SDS011;31595;51.418;7.572;2024-03-07T11:00:41;13.93;;;12.52;;
45887;SDS011;31595;51.418;7.572;2024-03-07T11:03:11;13.82;;;12.43;;
45887;SDS011;31595;51.418;7.572;2024-03-07T11:05:39;14.00;;;12.70;;
45887;SDS011;31595;51.418;7.572;2024-03-07T11:08:08;14.27;;;12.77;;
45887;SDS011;31595;51.418;7.572;2024-03-07T11:10:37;14.23;;;12.75;;
45887;SDS011;31595;51.418;7.572;2024-03-07T11:13:05;13.88;;;12.48;;
45887;SDS011;31595;51.418;7.572;2024-03-07T11:15:33;15.15;;;13.48;;
45887;SDS011;31595;51.418;7.572;2024-03-07T11:18:00;14.15;;;12.18;;
45887;SDS011;31595;51.418;7.572;2024-03-07T11:20:33;15.07;;;13.57;;
45887;SDS011;31595;51.418;7.572;2024-03-07T11:23:00;14.00;;;12.10;;
45887;SDS011;31595;51.418;7.572;2024-03-07T11:25:28;13.35;;;11.95;;
45887;SDS011;31595;51.418;7.572;2024-03-07T11:27:56;13.85;;;12.40;;
45887;SDS011;31595;51.418;7.572;2024-03-07T11:30:23;12.63;;;11.43;;
45887;SDS011;31595;51.418;7.572;2024-03-07T11:32:52;13.27;;;12.07;;
45887;SDS011;31595;51.418;7.572;2024-03-07T11:35:19;13.50;;;12.20;;
45887;SDS011;31595;51.418;7.572;2024-03-07T11:37:56;13.18;;;11.77;;
45887;SDS011;31595;51.418;7.572;2024-03-07T11:43:10;14.05;;;12.60;;
45887;SDS011;31595;51.418;7.572;2024-03-07T11:45:38;15.20;;;13.70;;
45887;SDS011;31595;51.418;7.572;2024-03-07T11:48:11;14.05;;;12.65;;
45887;SDS011;31595;51.418;7.572;2024-03-07T11:50:40;14.98;;;13.48;;
45887;SDS011;31595;51.418;7.572;2024-03-07T11:53:08;15.32;;;13.73;;
45887;SDS011;31595;51.418;7.572;2024-03-07T11:55:36;15.88;;;14.32;;
45887;SDS011;31595;51.418;7.572;2024-03-07T11:58:11;16.33;;;14.63;;
45887;SDS011;31595;51.418;7.572;2024-03-07T12:00:40;18.05;;;15.85;;
45887;SDS011;31595;51.418;7.572;2024-03-07T12:03:08;16.52;;;14.52;;
45887;SDS011;31595;51.418;7.572;2024-03-07T12:05:40;17.10;;;14.95;;
45887;SDS011;31595;51.418;7.572;2024-03-07T12:08:07;16.60;;;14.80;;
45887;SDS011;31595;51.418;7.572;2024-03-07T12:10:35;17.83;;;14.63;;
45887;SDS011;31595;51.418;7.572;2024-03-07T12:13:04;16.45;;;13.77;;
45887;SDS011;31595;51.418;7.572;2024-03-07T12:15:31;14.88;;;12.82;;
45887;SDS011;31595;51.418;7.572;2024-03-07T12:18:00;16.80;;;12.83;;
45887;SDS011;31595;51.418;7.572;2024-03-07T12:20:28;15.20;;;12.80;;
45887;SDS011;31595;51.418;7.572;2024-03-07T12:23:00;15.10;;;12.07;;
45887;SDS011;31595;51.418;7.572;2024-03-07T12:28:03;14.45;;;12.63;;
45887;SDS011;31595;51.418;7.572;2024-03-07T12:30:32;15.18;;;13.18;;
45887;SDS011;31595;51.418;7.572;2024-03-07T12:33:00;14.82;;;12.65;;
45887;SDS011;31595;51.418;7.572;2024-03-07T12:35:29;16.25;;;13.38;;
45887;SDS011;31595;51.418;7.572;2024-03-07T12:37:56;13.30;;;11.90;;
45887;SDS011;31595;51.418;7.572;2024-03-07T12:40:24;14.80;;;12.35;;
45887;SDS011;31595;51.418;7.572;2024-03-07T12:42:55;14.95;;;11.65;;
45887;SDS011;31595;51.418;7.572;2024-03-07T12:45:22;14.60;;;12.05;;
45887;SDS011;31595;51.418;7.572;2024-03-07T12:47:48;12.60;;;10.93;;
45887;SDS011;31595;51.418;7.572;2024-03-07T12:50:19;13.50;;;10.93;;
45887;SDS011;31595;51.418;7.572;2024-03-07T12:52:46;14.15;;;11.18;;
45887;SDS011;31595;51.418;7.572;2024-03-07T12:55:15;14.38;;;11.90;;
45887;SDS011;31595;51.418;7.572;2024-03-07T12:57:45;13.02;;;11.57;;
45887;SDS011;31595;51.418;7.572;2024-03-07T13:00:12;15.07;;;12.27;;
45887;SDS011;31595;51.418;7.572;2024-03-07T13:02:45;11.18;;;9.98;;
45887;SDS011;31595;51.418;7.572;2024-03-07T13:05:11;9.90;;;8.65;;
45887;SDS011;31595;51.418;7.572;2024-03-07T13:07:45;10.18;;;7.63;;
45887;SDS011;31595;51.418;7.572;2024-03-07T13:10:12;11.15;;;7.78;;
45887;SDS011;31595;51.418;7.572;2024-03-07T13:12:40;11.07;;;8.10;;
45887;SDS011;31595;51.418;7.572;2024-03-07T13:15:10;12.90;;;10.30;;
45887;SDS011;31595;51.418;7.572;2024-03-07T13:17:37;13.45;;;10.52;;
45887;SDS011;31595;51.418;7.572;2024-03-07T13:20:04;13.32;;;10.70;;
45887;SDS011;31595;51.418;7.572;2024-03-07T13:22:37;14.23;;;11.95;;
45887;SDS011;31595;51.418;7.572;2024-03-07T13:25:04;14.43;;;11.43;;
45887;SDS011;31595;51.418;7.572;2024-03-07T13:27:40;14.80;;;11.82;;
45887;SDS011;31595;51.418;7.572;2024-03-07T13:30:07;15.68;;;11.75;;
45887;SDS011;31595;51.418;7.572;2024-03-07T13:32:35;12.52;;;11.15;;
45887;SDS011;31595;51.418;7.572;2024-03-07T13:35:02;16.38;;;11.15;;
45887;SDS011;31595;51.418;7.572;2024-03-07T13:37:29;14.27;;;11.00;;
45887;SDS011;31595;51.418;7.572;2024-03-07T13:39:59;15.25;;;11.50;;
45887;SDS011;31595;51.418;7.572;2024-03-07T13:42:45;12.52;;;10.57;;
45887;SDS011;31595;51.418;7.572;2024-03-07T13:45:12;12.82;;;10.25;;
45887;SDS011;31595;51.418;7.572;2024-03-07T13:47:40;11.98;;;9.35;;
45887;SDS011;31595;51.418;7.572;2024-03-07T13:50:08;10.95;;;8.85;;
45887;SDS011;31595;51.418;7.572;2024-03-07T13:52:37;10.98;;;9.23;;
45887;SDS011;31595;51.418;7.572;2024-03-07T13:55:09;10.07;;;8.50;;
45887;SDS011;31595;51.418;7.572;2024-03-07T13:57:40;10.43;;;8.47;;
45887;SDS011;31595;51.418;7.572;2024-03-07T14:00:21;10.88;;;8.93;;
45887;SDS011;31595;51.418;7.572;2024-03-07T14:05:42;9.98;;;8.73;;
45887;SDS011;31595;51.418;7.572;2024-03-07T14:08:20;11.15;;;8.88;;
45887;SDS011;31595;51.418;7.572;2024-03-07T14:11:10;10.90;;;8.15;;
45887;SDS011;31595;51.418;7.572;2024-03-07T14:13:44;10.65;;;8.30;;
45887;SDS011;31595;51.418;7.572;2024-03-07T14:16:21;11.07;;;9.18;;
45887;SDS011;31595;51.418;7.572;2024-03-07T14:21:50;12.10;;;9.63;;
45887;SDS011;31595;51.418;7.572;2024-03-07T14:27:18;14.55;;;10.48;;
45887;SDS011;31595;51.418;7.572;2024-03-07T14:29:49;12.65;;;10.00;;
45887;SDS011;31595;51.418;7.572;2024-03-07T14:32:18;14.82;;;11.40;;
45887;SDS011;31595;51.418;7.572;2024-03-07T14:34:47;14.68;;;11.43;;
45887;SDS011;31595;51.418;7.572;2024-03-07T14:37:19;14.05;;;11.32;;
45887;SDS011;31595;51.418;7.572;2024-03-07T14:39:48;15.65;;;11.90;;
45887;SDS011;31595;51.418;7.572;2024-03-07T14:42:16;15.80;;;11.63;;